Time;durP1;ratioP1;P1;durP2;ratioP2;P2;SDS_P1;SDS_P2;PMS_P1;PMS_P2;Temp;Humidity;BMP_temperature;BMP_pressure;BME280_temperature;BME280_humidity;BME280_pressure;Samples;Min_cycle;Max_cycle;Signal;HPM_P1;HPM_P2
2023/12/04 00:01:33;;;;;;;;;;;52.10;2227.20;;;;;;4995310;28;19912;-74
2023/12/04 00:03:59;;;;;;;;;;;52.10;2227.20;;;;;;4995077;28;19905;-74
2023/12/04 00:06:24;;;;;;;;;;;52.10;2227.20;;;;;;4977270;28;19906;-75
2023/12/04 00:08:50;;;;;;;;;;;52.00;2227.20;;;;;;4996094;28;19907;-74
2023/12/04 00:11:15;;;;;;;;;;;52.00;2227.20;;;;;;4994719;28;19917;-75
2023/12/04 00:13:41;;;;;;;;;;;51.90;2227.20;;;;;;4994982;28;19905;-75
2023/12/04 00:16:07;;;;;;;;;;;52.00;2227.20;;;;;;4994838;28;19909;-74
2023/12/04 00:18:32;;;;;;;;;;;51.90;2227.20;;;;;;4977763;28;19906;-75
2023/12/04 00:20:58;;;;;;;;;;;51.90;2227.20;;;;;;4994660;28;19918;-74
2023/12/04 00:23:24;;;;;;;;;;;51.90;2227.20;;;;;;4995106;28;19922;-74
2023/12/04 00:25:49;;;;;;;;;;;51.90;2227.20;;;;;;4994439;28;19906;-75
2023/12/04 00:28:15;;;;;;;;;;;51.80;2227.20;;;;;;4994774;28;20363;-75
2023/12/04 00:30:41;;;;;;;;;;;51.70;2227.20;;;;;;4994486;28;19996;-75
2023/12/04 00:33:06;;;;;;;;;;;51.70;2227.20;;;;;;4994728;28;19905;-74
2023/12/04 00:35:32;;;;;;;;;;;51.60;2227.20;;;;;;4994910;28;19913;-74
2023/12/04 00:37:58;;;;;;;;;;;51.60;2227.20;;;;;;4994167;28;19906;-74
2023/12/04 00:40:23;;;;;;;;;;;51.60;2227.20;;;;;;4994105;28;19949;-74
2023/12/04 00:42:49;;;;;;;;;;;51.60;2227.20;;;;;;4994521;28;19932;-74
2023/12/04 00:45:15;;;;;;;;;;;51.70;2227.20;;;;;;4994255;28;20374;-74
2023/12/04 00:47:40;;;;;;;;;;;51.70;2227.20;;;;;;4994839;28;19906;-74
2023/12/04 00:50:06;;;;;;;;;;;51.60;2227.20;;;;;;4993905;28;19918;-75
2023/12/04 00:52:32;;;;;;;;;;;51.60;2227.20;;;;;;4994227;28;19909;-74
2023/12/04 00:54:57;;;;;;;;;;;51.60;2227.20;;;;;;4993869;28;19906;-74
2023/12/04 00:57:23;;;;;;;;;;;51.50;2227.20;;;;;;4994149;28;20338;-74
2023/12/04 00:59:48;;;;;;;;;;;51.60;2227.20;;;;;;4994077;28;19916;-74
2023/12/04 01:02:14;;;;;;;;;;;51.50;2227.20;;;;;;4993912;28;19906;-74
2023/12/04 01:04:40;;;;;;;;;;;51.50;2227.20;;;;;;4994385;28;19959;-74
2023/12/04 01:07:06;;;;;;;;;;;51.50;2227.20;;;;;;4993994;28;19996;-75
2023/12/04 01:09:34;;;;;;;;;;;51.50;2227.20;;;;;;4975594;28;20052;-75
2023/12/04 01:11:59;;;;;;;;;;;51.50;2227.20;;;;;;4993735;28;19905;-75
2023/12/04 01:14:25;;;;;;;;;;;51.50;2227.20;;;;;;4994100;28;19905;-74
2023/12/04 01:16:51;;;;;;;;;;;51.30;2227.20;;;;;;4993742;28;19992;-74
2023/12/04 01:19:16;;;;;;;;;;;51.30;2227.20;;;;;;4993548;28;19905;-74
2023/12/04 01:21:42;;;;;;;;;;;51.20;2227.20;;;;;;4993863;28;19938;-74
2023/12/04 01:24:07;;;;;;;;;;;51.30;2227.20;;;;;;4993388;28;19918;-75
2023/12/04 01:26:33;;;;;;;;;;;51.30;2227.20;;;;;;4993457;28;19906;-74
2023/12/04 01:28:59;;;;;;;;;;;51.20;2227.20;;;;;;4975825;28;20272;-74
2023/12/04 01:31:24;;;;;;;;;;;51.30;2227.20;;;;;;4993647;28;19960;-74
2023/12/04 01:33:50;;;;;;;;;;;51.40;2227.20;;;;;;4993383;28;20276;-74
2023/12/04 01:36:16;;;;;;;;;;;51.30;2227.20;;;;;;4993688;28;20378;-75
2023/12/04 01:38:41;;;;;;;;;;;51.30;2227.20;;;;;;4992622;28;19937;-75
2023/12/04 01:41:07;;;;;;;;;;;51.40;2227.20;;;;;;4993469;28;19997;-74
2023/12/04 01:43:33;;;;;;;;;;;51.30;2227.20;;;;;;4993892;28;19906;-75
2023/12/04 01:45:59;;;;;;;;;;;26.50;2201.60;;;;;;4993502;28;19905;-75
2023/12/04 01:48:25;;;;;;;;;;;26.50;2201.60;;;;;;4975832;28;19945;-74
2023/12/04 01:50:51;;;;;;;;;;;26.40;2201.60;;;;;;4993207;28;20283;-74
2023/12/04 01:53:17;;;;;;;;;;;26.30;2201.60;;;;;;4976142;28;20414;-74
2023/12/04 01:55:42;;;;;;;;;;;26.50;2201.60;;;;;;4997064;28;20383;-74
2023/12/04 01:58:09;;;;;;;;;;;26.50;2201.60;;;;;;4979501;28;20355;-74
2023/12/04 02:00:34;;;;;;;;;;;26.50;2201.60;;;;;;4997367;28;19960;-74
2023/12/04 02:03:01;;;;;;;;;;;26.50;2201.60;;;;;;4997475;28;19910;-74
2023/12/04 02:05:27;;;;;;;;;;;26.20;2201.60;;;;;;4979552;28;19953;-74
2023/12/04 02:07:53;;;;;;;;;;;26.30;2201.60;;;;;;4997034;28;19992;-75
2023/12/04 02:10:19;;;;;;;;;;;26.30;2201.60;;;;;;4997367;28;20327;-75
2023/12/04 02:12:44;;;;;;;;;;;26.20;2201.60;;;;;;4996846;28;20368;-74
2023/12/04 02:15:10;;;;;;;;;;;26.20;2201.60;;;;;;4997190;28;19976;-74
2023/12/04 02:17:36;;;;;;;;;;;26.10;2201.60;;;;;;4996980;28;19993;-75
2023/12/04 02:20:03;;;;;;;;;;;25.90;2201.60;;;;;;4997284;28;20351;-75
2023/12/04 02:22:29;;;;;;;;;;;26.10;2201.60;;;;;;4996647;28;19976;-74
2023/12/04 02:24:58;;;;;;;;;;;26.10;2201.60;;;;;;4997047;28;20303;-74
2023/12/04 02:27:26;;;;;;;;;;;26.20;2201.60;;;;;;4996557;28;19913;-74
2023/12/04 02:29:59;;;;;;;;;;;26.20;2201.60;;;;;;4997692;28;19922;-74
2023/12/04 02:32:26;;;;;;;;;;;26.10;2201.60;;;;;;4996704;28;19913;-74
2023/12/04 02:34:53;;;;;;;;;;;26.10;2201.60;;;;;;4988607;28;19905;-74
2023/12/04 02:37:19;;;;;;;;;;;26.00;2201.60;;;;;;4996933;28;19905;-75
2023/12/04 02:39:44;;;;;;;;;;;25.90;2201.60;;;;;;4996740;28;19910;-74
2023/12/04 02:42:13;;;;;;;;;;;25.80;2201.60;;;;;;4996753;28;19956;-74
2023/12/04 02:44:39;;;;;;;;;;;25.90;2201.60;;;;;;4996630;28;20052;-74
2023/12/04 02:47:05;;;;;;;;;;;26.00;2201.60;;;;;;4978667;28;19945;-74
2023/12/04 02:49:30;;;;;;;;;;;26.20;2201.60;;;;;;4996172;28;19967;-74
2023/12/04 02:51:57;;;;;;;;;;;26.10;2201.60;;;;;;4996374;28;20003;-74
2023/12/04 02:54:23;;;;;;;;;;;25.90;2201.60;;;;;;4996595;28;19912;-74
2023/12/04 02:56:48;;;;;;;;;;;0.90;2201.60;;;;;;4996231;28;19905;-74
2023/12/04 02:59:14;;;;;;;;;;;25.70;2201.60;;;;;;4996445;28;19996;-74
2023/12/04 03:01:40;;;;;;;;;;;25.60;2201.60;;;;;;4996250;28;19909;-74
2023/12/04 03:04:05;;;;;;;;;;;25.70;2201.60;;;;;;4996143;28;20000;-75
2023/12/04 03:06:31;;;;;;;;;;;25.90;2201.60;;;;;;4996145;28;19905;-75
2023/12/04 03:08:59;;;;;;;;;;;26.00;2201.60;;;;;;4995908;28;20387;-74
2023/12/04 03:11:24;;;;;;;;;;;26.00;2201.60;;;;;;4996182;28;20398;-74
2023/12/04 03:13:50;;;;;;;;;;;26.00;2201.60;;;;;;4978530;28;19944;-75
2023/12/04 03:16:17;;;;;;;;;;;26.00;2201.60;;;;;;4995779;28;19905;-74
2023/12/04 03:18:42;;;;;;;;;;;26.00;2201.60;;;;;;4995445;28;19934;-74
2023/12/04 03:21:08;;;;;;;;;;;26.00;2201.60;;;;;;4995657;28;19918;-74
2023/12/04 03:23:33;;;;;;;;;;;25.90;2201.60;;;;;;4996106;28;19922;-75
2023/12/04 03:25:59;;;;;;;;;;;26.00;2201.60;;;;;;4995573;28;19913;-74
2023/12/04 03:28:25;;;;;;;;;;;26.00;2201.60;;;;;;4995866;28;20001;-74
2023/12/04 03:30:50;;;;;;;;;;;26.00;2201.60;;;;;;4995534;28;19921;-74
2023/12/04 03:33:16;;;;;;;;;;;25.90;2201.60;;;;;;4995827;28;19905;-75
2023/12/04 03:35:41;;;;;;;;;;;26.00;2201.60;;;;;;4995445;28;19912;-74
2023/12/04 03:38:07;;;;;;;;;;;26.00;2201.60;;;;;;4996161;28;19909;-74
2023/12/04 03:40:33;;;;;;;;;;;25.80;2201.60;;;;;;4995347;28;19913;-75
2023/12/04 03:42:58;;;;;;;;;;;25.90;2201.60;;;;;;4995294;28;20364;-75
2023/12/04 03:45:24;;;;;;;;;;;25.90;2201.60;;;;;;4975374;28;20008;-74
2023/12/04 03:47:49;;;;;;;;;;;26.00;2201.60;;;;;;4995391;28;19905;-74
2023/12/04 03:50:15;;;;;;;;;;;26.00;2201.60;;;;;;4994884;28;20376;-74
2023/12/04 03:52:41;;;;;;;;;;;26.00;2201.60;;;;;;4995763;28;19910;-75
2023/12/04 03:55:08;;;;;;;;;;;26.00;2201.60;;;;;;4995148;28;19980;-74
2023/12/04 03:57:33;;;;;;;;;;;26.00;2201.60;;;;;;4994929;28;19905;-75
2023/12/04 03:59:59;;;;;;;;;;;26.00;2201.60;;;;;;4977349;28;20327;-74
2023/12/04 04:02:24;;;;;;;;;;;25.90;2201.60;;;;;;4977430;28;19956;-75
2023/12/04 04:04:50;;;;;;;;;;;26.00;2201.60;;;;;;4994861;28;20012;-74
2023/12/04 04:07:17;;;;;;;;;;;26.00;2201.60;;;;;;4995126;28;19960;-74
2023/12/04 04:09:43;;;;;;;;;;;26.00;2201.60;;;;;;4977622;28;19913;-74
2023/12/04 04:12:08;;;;;;;;;;;25.90;2201.60;;;;;;4994955;28;19905;-74
2023/12/04 04:14:34;;;;;;;;;;;25.90;2201.60;;;;;;4994985;28;20330;-75
2023/12/04 04:17:00;;;;;;;;;;;25.90;2201.60;;;;;;4994303;28;19910;-74
2023/12/04 04:19:25;;;;;;;;;;;25.90;2201.60;;;;;;4977144;28;19916;-74
2023/12/04 04:21:51;;;;;;;;;;;25.90;2201.60;;;;;;4994964;28;19939;-74
2023/12/04 04:24:16;;;;;;;;;;;25.90;2201.60;;;;;;4994510;28;20271;-74
2023/12/04 04:26:42;;;;;;;;;;;25.80;2201.60;;;;;;4995118;28;19909;-74
2023/12/04 04:29:09;;;;;;;;;;;25.80;2201.60;;;;;;4994187;28;19906;-74
2023/12/04 04:31:35;;;;;;;;;;;25.90;2201.60;;;;;;4994884;28;19910;-74
2023/12/04 04:34:00;;;;;;;;;;;26.00;2201.60;;;;;;4994495;28;20012;-74
2023/12/04 04:36:26;;;;;;;;;;;26.10;2201.60;;;;;;4994616;28;20419;-74
2023/12/04 04:38:52;;;;;;;;;;;26.10;2201.60;;;;;;4994567;28;19912;-74
2023/12/04 04:41:17;;;;;;;;;;;26.10;2201.60;;;;;;4994273;28;20256;-74
2023/12/04 04:43:43;;;;;;;;;;;26.00;2201.60;;;;;;4994651;28;19905;-74
2023/12/04 04:46:09;;;;;;;;;;;25.80;2201.60;;;;;;4976732;28;19906;-74
2023/12/04 04:48:34;;;;;;;;;;;25.80;2201.60;;;;;;4994281;28;19905;-74
2023/12/04 04:51:00;;;;;;;;;;;25.80;2201.60;;;;;;4993959;28;20275;-74
2023/12/04 04:53:26;;;;;;;;;;;25.80;2201.60;;;;;;4993927;28;20279;-74
2023/12/04 04:55:51;;;;;;;;;;;25.90;2201.60;;;;;;4994675;28;19905;-74
2023/12/04 04:58:17;;;;;;;;;;;25.90;2201.60;;;;;;4993762;28;19929;-75
2023/12/04 05:00:44;;;;;;;;;;;25.80;2201.60;;;;;;4976444;28;19906;-74
2023/12/04 05:03:09;;;;;;;;;;;25.70;2201.60;;;;;;4976349;28;19952;-74
2023/12/04 05:05:35;;;;;;;;;;;0.90;2201.60;;;;;;4987682;28;20030;-74
2023/12/04 05:08:00;;;;;;;;;;;0.90;2201.60;;;;;;4984415;28;19932;-74
2023/12/04 05:10:26;;;;;;;;;;;25.60;2201.60;;;;;;4992293;28;19942;-74
2023/12/04 05:12:51;;;;;;;;;;;0.90;2201.60;;;;;;4992081;28;19948;-74
2023/12/04 05:15:17;;;;;;;;;;;0.90;2201.60;;;;;;4991994;28;19914;-74
2023/12/04 05:17:43;;;;;;;;;;;0.90;2201.60;;;;;;4998567;28;19992;-74
2023/12/04 05:20:08;;;;;;;;;;;0.90;2201.60;;;;;;4988293;28;19910;-74
2023/12/04 05:22:34;;;;;;;;;;;0.90;2201.60;;;;;;4990140;28;20012;-74
2023/12/04 05:25:00;;;;;;;;;;;0.90;2201.60;;;;;;4988843;28;19906;-74
2023/12/04 05:27:25;;;;;;;;;;;0.90;2201.60;;;;;;4988711;28;20360;-74
2023/12/04 05:29:51;;;;;;;;;;;25.60;2201.60;;;;;;4987038;28;19917;-74
2023/12/04 05:32:17;;;;;;;;;;;25.60;2201.60;;;;;;4984383;28;19918;-73
2023/12/04 05:34:42;;;;;;;;;;;0.90;2201.60;;;;;;4991495;28;19924;-74
2023/12/04 05:37:08;;;;;;;;;;;0.60;2201.60;;;;;;4989029;28;19914;-75
2023/12/04 05:39:33;;;;;;;;;;;0.10;2201.60;;;;;;4990170;28;19917;-74
2023/12/04 05:41:59;;;;;;;;;;;0.30;2201.60;;;;;;4983851;28;19906;-74
2023/12/04 05:44:25;;;;;;;;;;;0.40;2201.60;;;;;;4987884;28;19916;-75
2023/12/04 05:46:50;;;;;;;;;;;0.50;2201.60;;;;;;4988319;28;19956;-74
2023/12/04 05:49:16;;;;;;;;;;;0.10;2201.60;;;;;;4993125;28;19909;-74
2023/12/04 05:51:42;;;;;;;;;;;0.00;2201.60;;;;;;4988596;28;19917;-74
2023/12/04 05:54:08;;;;;;;;;;;0.00;2201.60;;;;;;4975919;28;20253;-74
2023/12/04 05:56:34;;;;;;;;;;;0.10;2201.60;;;;;;4984376;28;19949;-74
2023/12/04 05:59:00;;;;;;;;;;;0.10;2201.60;;;;;;4975131;28;20003;-74
2023/12/04 06:01:25;;;;;;;;;;;0.10;2201.60;;;;;;4984253;28;19953;-73
2023/12/04 06:03:51;;;;;;;;;;;0.30;2201.60;;;;;;4993727;28;20349;-77
2023/12/04 06:06:17;;;;;;;;;;;0.10;2201.60;;;;;;4991823;28;20437;-75
2023/12/04 06:08:42;;;;;;;;;;;0.30;2201.60;;;;;;4986861;28;19910;-80
2023/12/04 06:11:08;;;;;;;;;;;0.30;2201.60;;;;;;4988990;28;19918;-76
2023/12/04 06:13:33;;;;;;;;;;;0.20;2201.60;;;;;;4964672;28;19917;-77
2023/12/04 06:15:59;;;;;;;;;;;0.30;2201.60;;;;;;4990977;28;20004;-76
2023/12/04 06:18:25;;;;;;;;;;;0.40;2201.60;;;;;;4992897;28;19913;-76
2023/12/04 06:20:50;;;;;;;;;;;0.20;2201.60;;;;;;4989382;28;19964;-75
2023/12/04 06:23:16;;;;;;;;;;;0.10;2201.60;;;;;;4975432;28;19922;-76
2023/12/04 06:25:42;;;;;;;;;;;12.90;2201.60;;;;;;4971676;28;20287;-75
2023/12/04 06:28:08;;;;;;;;;;;13.00;2201.60;;;;;;4969254;28;19914;-75
2023/12/04 06:30:33;;;;;;;;;;;0.10;2201.60;;;;;;4989432;28;19918;-75
2023/12/04 06:32:59;;;;;;;;;;;0.10;2201.60;;;;;;4993167;28;20331;-76
2023/12/04 06:35:25;;;;;;;;;;;13.00;2201.60;;;;;;4991374;28;19949;-75
2023/12/04 06:37:53;;;;;;;;;;;13.20;2201.60;;;;;;4987972;28;19910;-75
2023/12/04 06:40:19;;;;;;;;;;;13.40;2201.60;;;;;;4982774;28;20265;-75
2023/12/04 06:42:45;;;;;;;;;;;13.40;2201.60;;;;;;4991401;28;19958;-77
2023/12/04 06:45:11;;;;;;;;;;;13.20;2201.60;;;;;;4991215;28;19941;-78
2023/12/04 06:47:37;;;;;;;;;;;12.90;2201.60;;;;;;4987164;28;19910;-82
2023/12/04 06:50:02;;;;;;;;;;;13.00;2201.60;;;;;;4977001;28;19918;-76
2023/12/04 06:52:28;;;;;;;;;;;0.20;2201.60;;;;;;4994227;28;19918;-75
2023/12/04 06:54:53;;;;;;;;;;;0.30;2201.60;;;;;;4995065;28;19910;-78
2023/12/04 06:57:19;;;;;;;;;;;0.40;2201.60;;;;;;4993612;28;19913;-75
2023/12/04 06:59:46;;;;;;;;;;;0.70;2201.60;;;;;;4987709;28;19913;-75
2023/12/04 07:02:11;;;;;;;;;;;0.70;2201.60;;;;;;4991000;28;19910;-82
2023/12/04 07:04:37;;;;;;;;;;;0.80;2201.60;;;;;;4977941;28;19913;-75
2023/12/04 07:07:04;;;;;;;;;;;0.80;2201.60;;;;;;4995377;28;19906;-76
2023/12/04 07:09:34;;;;;;;;;;;0.80;2201.60;;;;;;4989010;28;19910;-76
2023/12/04 07:12:00;;;;;;;;;;;25.60;2201.60;;;;;;4978640;28;19913;-76
2023/12/04 07:14:26;;;;;;;;;;;25.70;2201.60;;;;;;4984635;28;20022;-76
2023/12/04 07:16:52;;;;;;;;;;;25.90;2201.60;;;;;;4991354;28;20304;-76
2023/12/04 07:19:17;;;;;;;;;;;26.00;2201.60;;;;;;4994036;28;19961;-79
2023/12/04 07:21:43;;;;;;;;;;;25.80;2201.60;;;;;;4990640;28;20052;-75
2023/12/04 07:24:08;;;;;;;;;;;25.90;2201.60;;;;;;4990945;28;20063;-74
2023/12/04 07:26:35;;;;;;;;;;;26.20;2201.60;;;;;;4992994;28;19910;-75
2023/12/04 07:29:01;;;;;;;;;;;26.40;2201.60;;;;;;4986451;28;20080;-75
2023/12/04 07:31:27;;;;;;;;;;;51.20;2227.20;;;;;;4991626;28;19914;-75
2023/12/04 07:33:55;;;;;;;;;;;51.30;2227.20;;;;;;4995762;28;19996;-77
2023/12/04 07:36:21;;;;;;;;;;;51.20;2227.20;;;;;;4984736;28;19952;-75
2023/12/04 07:38:47;;;;;;;;;;;26.10;2201.60;;;;;;4988914;28;20015;-75
2023/12/04 07:41:13;;;;;;;;;;;51.30;2227.20;;;;;;4975023;28;19910;-75
2023/12/04 07:43:39;;;;;;;;;;;51.20;2227.20;;;;;;4977483;28;19910;-75
2023/12/04 07:46:05;;;;;;;;;;;51.20;2227.20;;;;;;4991636;28;19964;-75
2023/12/04 07:48:30;;;;;;;;;;;51.20;2227.20;;;;;;4976414;28;19910;-75
2023/12/04 07:50:56;;;;;;;;;;;26.40;2201.60;;;;;;4983302;28;19921;-74
2023/12/04 07:53:22;;;;;;;;;;;51.20;2227.20;;;;;;4995105;28;20352;-75
2023/12/04 07:55:50;;;;;;;;;;;26.50;2201.60;;;;;;4995713;28;19909;-75
2023/12/04 07:58:17;;;;;;;;;;;26.50;2201.60;;;;;;4995380;28;19905;-78
2023/12/04 08:00:43;;;;;;;;;;;26.50;2201.60;;;;;;4978449;28;19990;-75
2023/12/04 08:03:09;;;;;;;;;;;51.20;2227.20;;;;;;4978261;28;19905;-76
2023/12/04 08:05:34;;;;;;;;;;;26.50;2201.60;;;;;;4978283;28;20283;-76
2023/12/04 08:08:00;;;;;;;;;;;26.50;2201.60;;;;;;4978062;28;20004;-75
2023/12/04 08:10:25;;;;;;;;;;;26.30;2201.60;;;;;;4995514;28;19921;-75
2023/12/04 08:12:51;;;;;;;;;;;26.20;2201.60;;;;;;4995492;28;19906;-75
2023/12/04 08:15:17;;;;;;;;;;;26.30;2201.60;;;;;;4995350;28;19913;-75
2023/12/04 08:17:42;;;;;;;;;;;26.40;2201.60;;;;;;4977944;28;20340;-75
2023/12/04 08:20:13;;;;;;;;;;;26.30;2201.60;;;;;;4995549;28;20000;-75
2023/12/04 08:22:41;;;;;;;;;;;26.30;2201.60;;;;;;4994803;28;19922;-75
2023/12/04 08:25:08;;;;;;;;;;;26.40;2201.60;;;;;;4995316;28;19997;-74
2023/12/04 08:27:33;;;;;;;;;;;26.30;2201.60;;;;;;4995242;28;19916;-76
2023/12/04 08:29:59;;;;;;;;;;;26.50;2201.60;;;;;;4995137;28;19914;-75
2023/12/04 08:32:26;;;;;;;;;;;51.30;2227.20;;;;;;4995022;28;19906;-75
2023/12/04 08:34:52;;;;;;;;;;;51.20;2227.20;;;;;;4995122;28;19992;-75
2023/12/04 08:37:18;;;;;;;;;;;51.30;2227.20;;;;;;4994894;28;20358;-75
2023/12/04 08:39:44;;;;;;;;;;;51.30;2227.20;;;;;;4994888;28;19905;-75
2023/12/04 08:42:11;;;;;;;;;;;51.30;2227.20;;;;;;4977624;28;19913;-75
2023/12/04 08:44:37;;;;;;;;;;;51.20;2227.20;;;;;;4995047;28;19905;-75
2023/12/04 08:47:02;;;;;;;;;;;51.30;2227.20;;;;;;4994564;28;19956;-75
2023/12/04 08:49:28;;;;;;;;;;;51.40;2227.20;;;;;;4994825;28;20327;-75
2023/12/04 08:51:53;;;;;;;;;;;51.40;2227.20;;;;;;4994692;28;19906;-76
2023/12/04 08:54:19;;;;;;;;;;;51.40;2227.20;;;;;;4994844;28;19921;-75
2023/12/04 08:56:45;;;;;;;;;;;51.60;2227.20;;;;;;4977502;28;19960;-76
2023/12/04 08:59:10;;;;;;;;;;;51.50;2227.20;;;;;;4994476;28;20003;-75
2023/12/04 09:01:36;;;;;;;;;;;51.50;2227.20;;;;;;4994238;28;20256;-75
2023/12/04 09:04:01;;;;;;;;;;;51.60;2227.20;;;;;;4994573;28;20379;-75
2023/12/04 09:06:27;;;;;;;;;;;51.70;2227.20;;;;;;4976983;28;19909;-75
2023/12/04 09:08:53;;;;;;;;;;;51.80;2227.20;;;;;;4994509;28;20008;-75
2023/12/04 09:11:19;;;;;;;;;;;51.80;2227.20;;;;;;4994297;28;20348;-75
2023/12/04 09:13:44;;;;;;;;;;;51.90;2227.20;;;;;;4976854;28;19960;-75
2023/12/04 09:16:10;;;;;;;;;;;51.80;2227.20;;;;;;4994330;28;19913;-75
2023/12/04 09:18:36;;;;;;;;;;;52.10;2227.20;;;;;;4994367;28;19906;-74
2023/12/04 09:21:01;;;;;;;;;;;76.80;2227.20;;;;;;4976618;28;19905;-75
2023/12/04 09:23:27;;;;;;;;;;;77.00;2227.20;;;;;;4976287;28;20359;-75
2023/12/04 09:25:52;;;;;;;;;;;77.10;2227.20;;;;;;4993960;28;19910;-75
2023/12/04 09:28:18;;;;;;;;;;;77.50;2227.20;;;;;;4994122;28;19912;-75
2023/12/04 09:30:44;;;;;;;;;;;77.40;2227.20;;;;;;4993958;28;19952;-84
2023/12/04 09:33:10;;;;;;;;;;;77.50;2227.20;;;;;;4994267;28;19905;-74
2023/12/04 09:35:35;;;;;;;;;;;102.40;2227.20;;;;;;4993984;28;19928;-74
2023/12/04 09:38:01;;;;;;;;;;;102.50;2227.20;;;;;;4994080;28;20022;-75
2023/12/04 09:40:27;;;;;;;;;;;103.00;2227.20;;;;;;4993893;28;20371;-75
2023/12/04 09:42:53;;;;;;;;;;;103.00;2227.20;;;;;;4994020;28;19905;-74
2023/12/04 09:45:20;;;;;;;;;;;103.00;2227.20;;;;;;4993972;28;19913;-73
2023/12/04 09:47:46;;;;;;;;;;;103.30;2227.20;;;;;;4994033;28;19996;-75
2023/12/04 09:50:12;;;;;;;;;;;103.20;2227.20;;;;;;4982265;28;19970;-75
2023/12/04 09:52:37;;;;;;;;;;;128.10;2252.80;;;;;;4989547;28;20491;-75
2023/12/04 09:55:05;;;;;;;;;;;128.80;2252.80;;;;;;4993614;28;19905;-75
2023/12/04 09:57:31;;;;;;;;;;;128.40;2252.80;;;;;;4993827;28;19906;-73
2023/12/04 09:59:58;;;;;;;;;;;128.90;2252.80;;;;;;4993827;28;20326;-74
2023/12/04 10:02:23;;;;;;;;;;;128.90;2252.80;;;;;;4993760;28;20367;-75
2023/12/04 10:04:49;;;;;;;;;;;153.60;2252.80;;;;;;4993581;28;19916;-74
2023/12/04 10:07:14;;;;;;;;;;;153.80;2252.80;;;;;;4993639;28;19906;-74
2023/12/04 10:09:41;;;;;;;;;;;154.10;2252.80;;;;;;4993403;28;19921;-75
2023/12/04 10:12:06;;;;;;;;;;;154.50;2252.80;;;;;;4993872;28;19906;-75
2023/12/04 10:14:32;;;;;;;;;;;154.40;2252.80;;;;;;4993564;28;19906;-75
2023/12/04 10:16:58;;;;;;;;;;;179.40;2252.80;;;;;;4980132;28;19909;-75
2023/12/04 10:19:27;;;;;;;;;;;179.70;2227.20;;;;;;4997516;28;20253;-75
2023/12/04 10:21:59;;;;;;;;;;;179.50;2227.20;;;;;;4997083;28;19921;-75
2023/12/04 10:24:30;;;;;;;;;;;179.30;2252.80;;;;;;4979687;28;19917;-75
2023/12/04 10:26:56;;;;;;;;;;;179.20;2252.80;;;;;;4997413;28;19906;-75
2023/12/04 10:29:22;;;;;;;;;;;154.30;2252.80;;;;;;4997072;28;20387;-74
2023/12/04 10:31:50;;;;;;;;;;;179.20;2176.00;;;;;;4997389;28;20033;-75
2023/12/04 10:34:16;;;;;;;;;;;154.50;2227.20;;;;;;4979709;28;19914;-75
2023/12/04 10:36:42;;;;;;;;;;;179.20;2201.60;;;;;;4997200;28;20398;-75
2023/12/04 10:39:08;;;;;;;;;;;179.50;2176.00;;;;;;4996559;28;19914;-75
2023/12/04 10:41:33;;;;;;;;;;;179.70;2150.40;;;;;;4997126;28;19909;-75
2023/12/04 10:44:00;;;;;;;;;;;179.80;2150.40;;;;;;4996610;28;20396;-75
2023/12/04 10:46:26;;;;;;;;;;;204.80;2048.00;;;;;;4996446;28;20346;-75
2023/12/04 10:48:52;;;;;;;;;;;205.00;1996.80;;;;;;4996827;28;19920;-76
2023/12/04 10:51:19;;;;;;;;;;;180.00;2073.60;;;;;;4996832;28;19923;-76
2023/12/04 10:53:44;;;;;;;;;;;204.90;2022.40;;;;;;4996781;28;19909;-77
2023/12/04 10:56:12;;;;;;;;;;;205.10;1971.20;;;;;;4996833;28;19906;-78
2023/12/04 10:58:39;;;;;;;;;;;180.10;2048.00;;;;;;4996761;28;19917;-75
2023/12/04 11:01:08;;;;;;;;;;;204.90;2022.40;;;;;;4979161;28;19913;-76
2023/12/04 11:03:44;;;;;;;;;;;180.00;2048.00;;;;;;4979052;28;19910;-76
2023/12/04 11:06:12;;;;;;;;;;;179.80;2073.60;;;;;;4983932;28;19905;-76
2023/12/04 11:08:39;;;;;;;;;;;179.60;2099.20;;;;;;4968102;28;19910;-76
2023/12/04 11:11:07;;;;;;;;;;;179.50;2099.20;;;;;;4964228;28;19925;-76
2023/12/04 11:13:35;;;;;;;;;;;179.80;2073.60;;;;;;4996630;28;20382;-76
2023/12/04 11:16:03;;;;;;;;;;;179.90;2099.20;;;;;;4996248;28;19909;-77
2023/12/04 11:18:31;;;;;;;;;;;179.90;2099.20;;;;;;4996449;28;19907;-79
2023/12/04 11:20:58;;;;;;;;;;;180.10;1996.80;;;;;;4997198;28;19909;-76
2023/12/04 11:23:25;;;;;;;;;;;204.80;2048.00;;;;;;4978868;28;19922;-78
2023/12/04 11:25:50;;;;;;;;;;;180.00;1996.80;;;;;;4996615;28;19968;-78
2023/12/04 11:28:16;;;;;;;;;;;180.10;1996.80;;;;;;4996612;28;20355;-75
2023/12/04 11:30:42;;;;;;;;;;;179.90;1996.80;;;;;;4995770;28;20260;-77
2023/12/04 11:33:09;;;;;;;;;;;179.70;2048.00;;;;;;4996138;28;19914;-76
2023/12/04 11:35:34;;;;;;;;;;;179.70;1996.80;;;;;;4996263;28;19910;-78
2023/12/04 11:38:00;;;;;;;;;;;179.50;1971.20;;;;;;4996018;28;19960;-78
2023/12/04 11:40:27;;;;;;;;;;;179.40;1971.20;;;;;;4996314;28;19906;-77
2023/12/04 11:42:53;;;;;;;;;;;179.30;2022.40;;;;;;4996039;28;19906;-76
2023/12/04 11:45:22;;;;;;;;;;;179.40;2073.60;;;;;;4974428;28;20245;-76
2023/12/04 11:47:48;;;;;;;;;;;179.60;2048.00;;;;;;4988246;28;20339;-76
2023/12/04 11:50:14;;;;;;;;;;;154.50;1996.80;;;;;;4991727;28;19914;-75
2023/12/04 11:52:40;;;;;;;;;;;154.30;2124.80;;;;;;4985364;28;19917;-75
2023/12/04 11:55:06;;;;;;;;;;;154.10;2124.80;;;;;;4986769;28;19906;-75
2023/12/04 11:57:32;;;;;;;;;;;154.10;2150.40;;;;;;4987503;28;20022;-76
2023/12/04 12:00:08;;;;;;;;;;;154.00;2124.80;;;;;;4988152;28;19918;-75
2023/12/04 12:02:33;;;;;;;;;;;153.90;2150.40;;;;;;4989841;28;20379;-78
2023/12/04 12:04:59;;;;;;;;;;;153.70;2124.80;;;;;;4993993;28;19952;-76
2023/12/04 12:07:25;;;;;;;;;;;153.60;2150.40;;;;;;4986624;28;20003;-76
2023/12/04 12:09:50;;;;;;;;;;;128.90;2176.00;;;;;;4988825;28;19918;-75
2023/12/04 12:12:16;;;;;;;;;;;153.70;2252.80;;;;;;4986717;28;20029;-76
2023/12/04 12:14:41;;;;;;;;;;;128.80;2227.20;;;;;;4976293;28;19917;-76
2023/12/04 12:17:08;;;;;;;;;;;128.70;2252.80;;;;;;4990670;28;19913;-77
2023/12/04 12:19:34;;;;;;;;;;;128.70;2252.80;;;;;;4985975;28;19912;-75
2023/12/04 12:22:00;;;;;;;;;;;128.40;2252.80;;;;;;4984659;28;19972;-75
2023/12/04 12:24:26;;;;;;;;;;;128.50;2252.80;;;;;;4971575;28;19910;-76
2023/12/04 12:26:51;;;;;;;;;;;128.40;2252.80;;;;;;4992296;28;19949;-78
2023/12/04 12:29:17;;;;;;;;;;;128.30;2252.80;;;;;;4973742;28;19910;-77
2023/12/04 12:31:43;;;;;;;;;;;128.10;2252.80;;;;;;4968739;28;19960;-76
2023/12/04 12:34:09;;;;;;;;;;;103.30;2227.20;;;;;;4962810;28;19953;-75
2023/12/04 12:36:34;;;;;;;;;;;128.00;2252.80;;;;;;4991201;28;19912;-78
2023/12/04 12:39:03;;;;;;;;;;;103.30;2227.20;;;;;;4989583;28;19964;-78
2023/12/04 12:41:29;;;;;;;;;;;103.20;2227.20;;;;;;4967015;28;19906;-78
2023/12/04 12:43:55;;;;;;;;;;;103.30;2227.20;;;;;;4989567;28;19910;-77
2023/12/04 12:46:21;;;;;;;;;;;103.20;2227.20;;;;;;4972201;28;19910;-76
2023/12/04 12:48:47;;;;;;;;;;;103.30;2227.20;;;;;;4995423;28;19905;-78
2023/12/04 12:51:13;;;;;;;;;;;103.30;2227.20;;;;;;4977618;28;19976;-76
2023/12/04 12:53:38;;;;;;;;;;;103.30;2227.20;;;;;;4976944;28;19918;-78
2023/12/04 12:56:05;;;;;;;;;;;103.30;2227.20;;;;;;4991528;28;19995;-77
2023/12/04 12:58:31;;;;;;;;;;;103.10;2227.20;;;;;;4985459;28;20031;-79
2023/12/04 13:00:56;;;;;;;;;;;102.90;2227.20;;;;;;4966281;28;19965;-78
2023/12/04 13:03:22;;;;;;;;;;;102.90;2227.20;;;;;;4970730;28;19917;-76
2023/12/04 13:05:48;;;;;;;;;;;102.80;2227.20;;;;;;4991362;28;19913;-77
2023/12/04 13:08:17;;;;;;;;;;;102.80;2227.20;;;;;;4983884;28;20279;-77
2023/12/04 13:10:42;;;;;;;;;;;102.70;2227.20;;;;;;4966124;28;19917;-75
2023/12/04 13:13:12;;;;;;;;;;;103.00;2227.20;;;;;;4995984;28;19909;-77
2023/12/04 13:15:37;;;;;;;;;;;103.10;2227.20;;;;;;4990698;28;19956;-77
2023/12/04 13:18:03;;;;;;;;;;;103.00;2227.20;;;;;;4973625;28;19910;-77
2023/12/04 13:20:29;;;;;;;;;;;102.80;2227.20;;;;;;4971701;28;19913;-76
2023/12/04 13:22:54;;;;;;;;;;;102.90;2227.20;;;;;;4989745;28;19944;-77
2023/12/04 13:25:20;;;;;;;;;;;102.90;2227.20;;;;;;4989265;28;20023;-75
2023/12/04 13:27:46;;;;;;;;;;;103.00;2227.20;;;;;;4989858;28;19910;-77
2023/12/04 13:30:13;;;;;;;;;;;103.00;2227.20;;;;;;4987546;28;19965;-78
2023/12/04 13:32:39;;;;;;;;;;;102.90;2227.20;;;;;;4991085;28;19992;-75
2023/12/04 13:35:05;;;;;;;;;;;103.00;2227.20;;;;;;4968348;28;19913;-77
2023/12/04 13:37:31;;;;;;;;;;;102.90;2227.20;;;;;;4970316;28;19956;-77
2023/12/04 13:40:06;;;;;;;;;;;103.00;2227.20;;;;;;4974645;28;19909;-78
2023/12/04 13:45:16;;;;;;;;;;;102.80;2227.20;;;;;;4988450;28;19916;-79